createdAt,value
2022-09-03T00:02:33.631Z,19.38
2022-09-03T00:05:09.975Z,19.28
2022-09-03T00:08:33.612Z,19.30
2022-09-03T00:15:04.119Z,19.16
2022-09-03T00:17:59.008Z,19.20
2022-09-03T00:20:46.945Z,19.12
2022-09-03T00:23:26.715Z,19.14
2022-09-03T00:26:11.170Z,19.13
2022-09-03T00:28:51.299Z,19.06
2022-09-03T00:31:38.898Z,18.99
2022-09-03T00:34:41.411Z,19.03
2022-09-03T00:37:14.263Z,18.96
2022-09-03T00:39:44.225Z,18.95
2022-09-03T00:42:39.835Z,18.84
2022-09-03T00:45:50.448Z,18.87
2022-09-03T00:48:32.227Z,18.90
2022-09-03T00:51:35.237Z,18.83
2022-09-03T00:54:33.963Z,18.83
2022-09-03T00:57:40.186Z,18.73
2022-09-03T01:00:14.214Z,18.74
2022-09-03T01:03:08.627Z,18.75
2022-09-03T01:06:12.639Z,18.71
2022-09-03T01:09:09.483Z,18.61
2022-09-03T01:12:41.684Z,18.57
2022-09-03T01:15:44.094Z,18.55
2022-09-03T01:18:35.729Z,18.49
2022-09-03T01:22:05.445Z,18.41
2022-09-03T01:25:17.624Z,18.35
2022-09-03T01:28:42.773Z,18.32
2022-09-03T01:31:52.651Z,18.26
2022-09-03T01:35:08.875Z,18.17
2022-09-03T01:38:05.644Z,18.08
2022-09-03T01:41:25.216Z,18.03
2022-09-03T01:44:40.463Z,17.98
2022-09-03T01:47:54.508Z,17.89
2022-09-03T01:50:46.507Z,17.81
2022-09-03T01:54:05.340Z,17.69
2022-09-03T01:57:35.621Z,17.69
2022-09-03T02:00:13.761Z,17.63
2022-09-03T02:02:47.679Z,17.57
2022-09-03T02:05:25.710Z,17.52
2022-09-03T02:08:08.219Z,17.48
2022-09-03T02:11:09.637Z,17.42
2022-09-03T02:13:52.155Z,17.38
2022-09-03T02:16:26.855Z,17.34
2022-09-03T02:19:02.029Z,17.21
2022-09-03T02:21:38.279Z,17.22
2022-09-03T02:24:09.324Z,17.22
2022-09-03T02:26:37.742Z,17.16
2022-09-03T02:29:05.787Z,17.11
2022-09-03T02:31:33.872Z,17.10
2022-09-03T02:34:01.930Z,17.07
2022-09-03T02:36:42.772Z,17.01
2022-09-03T02:39:10.772Z,16.99
2022-09-03T02:41:39.254Z,16.95
2022-09-03T02:44:24.001Z,16.93
2022-09-03T02:47:02.664Z,16.87
2022-09-03T02:49:31.858Z,16.82
2022-09-03T02:52:12.208Z,16.80
2022-09-03T02:54:40.907Z,16.76
2022-09-03T02:57:16.245Z,16.71
2022-09-03T02:59:48.428Z,16.69
2022-09-03T03:02:16.744Z,16.64
2022-09-03T03:04:45.160Z,16.58
2022-09-03T03:07:13.416Z,16.55
2022-09-03T03:09:41.638Z,16.51
2022-09-03T03:12:10.296Z,16.46
2022-09-03T03:14:38.560Z,16.42
2022-09-03T03:17:06.808Z,16.39
2022-09-03T03:19:34.937Z,16.34
2022-09-03T03:22:03.247Z,16.29
2022-09-03T03:24:31.455Z,16.25
2022-09-03T03:26:59.679Z,16.21
2022-09-03T03:29:28.353Z,16.19
2022-09-03T03:31:56.898Z,16.15
2022-09-03T03:34:25.103Z,16.11
2022-09-03T03:36:53.441Z,16.09
2022-09-03T03:39:21.690Z,16.06
2022-09-03T03:41:50.129Z,16.02
2022-09-03T03:44:20.173Z,15.95
2022-09-03T03:46:48.404Z,15.92
2022-09-03T03:49:16.742Z,15.87
2022-09-03T03:51:45.370Z,15.86
2022-09-03T03:54:14.490Z,15.82
2022-09-03T03:56:46.905Z,15.78
2022-09-03T03:59:23.910Z,15.75
2022-09-03T04:01:55.498Z,15.72
2022-09-03T04:04:23.917Z,15.68
2022-09-03T04:06:52.871Z,15.64
2022-09-03T04:09:21.305Z,15.60
2022-09-03T04:11:50.756Z,15.57
2022-09-03T04:14:19.011Z,15.54
2022-09-03T04:16:47.544Z,15.51
2022-09-03T04:19:15.774Z,15.50
2022-09-03T04:21:44.334Z,15.47
2022-09-03T04:24:13.066Z,15.43
2022-09-03T04:26:41.287Z,15.42
2022-09-03T04:29:10.453Z,15.40
2022-09-03T04:31:39.408Z,15.38
2022-09-03T04:34:09.509Z,15.36
2022-09-03T04:36:37.935Z,15.36
2022-09-03T04:39:06.124Z,15.32
2022-09-03T04:41:34.346Z,15.30
2022-09-03T04:44:02.734Z,15.28
2022-09-03T04:46:33.105Z,15.26
2022-09-03T04:49:02.070Z,15.24
2022-09-03T04:51:31.384Z,15.23
2022-09-03T04:54:02.093Z,15.21
2022-09-03T04:56:35.574Z,15.20
2022-09-03T04:59:09.487Z,15.17
2022-09-03T05:01:40.231Z,15.18
2022-09-03T05:04:09.180Z,15.16
2022-09-03T05:06:37.687Z,15.16
2022-09-03T05:09:06.456Z,15.16
2022-09-03T05:11:35.099Z,15.14
2022-09-03T05:14:05.742Z,15.15
2022-09-03T05:16:33.775Z,15.17
2022-09-03T05:19:03.640Z,15.18
2022-09-03T05:21:32.653Z,15.18
2022-09-03T05:24:03.008Z,15.20
2022-09-03T05:26:39.335Z,15.21
2022-09-03T05:29:08.325Z,15.22
2022-09-03T05:31:40.347Z,15.23
2022-09-03T05:34:10.039Z,15.25
2022-09-03T05:36:38.950Z,15.26
2022-09-03T05:39:07.897Z,15.28
2022-09-03T05:41:36.161Z,15.30
2022-09-03T05:44:05.985Z,15.31
2022-09-03T05:46:38.451Z,15.34
2022-09-03T05:49:08.129Z,15.35
2022-09-03T05:51:39.801Z,15.38
2022-09-03T05:54:09.387Z,15.41
2022-09-03T05:56:40.176Z,15.44
2022-09-03T05:59:10.286Z,15.46
2022-09-03T06:01:50.787Z,15.50
2022-09-03T06:04:20.722Z,15.53
2022-09-03T06:06:49.763Z,15.56
2022-09-03T06:09:23.277Z,15.62
2022-09-03T06:11:53.839Z,15.71
2022-09-03T06:14:22.222Z,15.72
2022-09-03T06:16:52.620Z,15.78
2022-09-03T06:19:20.927Z,15.84
2022-09-03T06:21:49.726Z,15.87
2022-09-03T06:24:26.299Z,15.95
2022-09-03T06:26:57.183Z,16.05
2022-09-03T06:29:26.896Z,16.11
2022-09-03T06:31:55.879Z,16.17
2022-09-03T06:34:27.089Z,16.23
2022-09-03T06:36:55.590Z,16.32
2022-09-03T06:39:24.617Z,16.39
2022-09-03T06:41:53.440Z,16.48
2022-09-03T06:44:28.471Z,16.55
2022-09-03T06:47:00.303Z,16.62
2022-09-03T06:49:28.358Z,16.69
2022-09-03T06:51:56.839Z,16.80
2022-09-03T06:54:25.113Z,16.87
2022-09-03T06:56:53.562Z,16.96
2022-09-03T06:59:21.792Z,17.03
2022-09-03T07:01:50.210Z,17.12
2022-09-03T07:04:20.227Z,17.20
2022-09-03T07:06:48.659Z,17.29
2022-09-03T07:09:18.858Z,17.38
2022-09-03T07:11:48.588Z,17.47
2022-09-03T07:14:19.431Z,17.58
2022-09-03T07:16:49.593Z,17.70
2022-09-03T07:19:18.283Z,17.76
2022-09-03T07:21:50.233Z,17.88
2022-09-03T07:24:21.847Z,18.00
2022-09-03T07:26:50.118Z,18.06
2022-09-03T07:29:21.850Z,18.19
2022-09-03T07:31:52.174Z,18.27
2022-09-03T07:34:25.538Z,18.36
2022-09-03T07:36:54.843Z,18.47
2022-09-03T07:39:22.982Z,18.56
2022-09-03T07:41:51.467Z,18.64
2022-09-03T07:44:20.222Z,18.73
2022-09-03T07:46:50.886Z,18.82
2022-09-03T07:49:21.583Z,18.89
2022-09-03T07:51:54.349Z,19.01
2022-09-03T07:54:25.986Z,19.12
2022-09-03T07:56:53.991Z,19.24
2022-09-03T07:59:22.955Z,19.36
2022-09-03T08:01:52.933Z,19.49
2022-09-03T08:04:21.970Z,19.63
2022-09-03T08:06:49.945Z,19.71
2022-09-03T08:09:17.929Z,19.83
2022-09-03T08:11:45.872Z,19.90
2022-09-03T08:14:14.883Z,20.02
2022-09-03T08:16:47.933Z,20.09
2022-09-03T08:19:20.908Z,20.17
2022-09-03T08:21:48.942Z,20.28
2022-09-03T08:24:21.239Z,20.35
2022-09-03T08:26:52.221Z,20.46
2022-09-03T08:29:21.544Z,20.60
2022-09-03T08:31:49.895Z,20.71
2022-09-03T08:34:19.395Z,20.78
2022-09-03T08:36:47.779Z,20.84
2022-09-03T08:39:16.682Z,20.96
2022-09-03T08:41:53.546Z,21.04
2022-09-03T08:44:30.804Z,21.14
2022-09-03T08:47:12.130Z,21.23
2022-09-03T08:50:31.350Z,21.36
2022-09-03T08:53:57.959Z,21.37
2022-09-03T08:56:29.293Z,21.44
2022-09-03T08:58:57.883Z,21.67
2022-09-03T09:01:57.445Z,21.63
2022-09-03T09:04:48.120Z,21.87
2022-09-03T09:07:53.377Z,22.01
2022-09-03T09:10:45.399Z,22.05
2022-09-03T09:13:40.752Z,22.12
2022-09-03T09:16:33.264Z,22.22
2022-09-03T09:19:15.999Z,22.33
2022-09-03T09:21:56.613Z,22.41
2022-09-03T09:24:39.939Z,22.45
2022-09-03T09:27:10.809Z,22.56
2022-09-03T09:29:42.858Z,22.53
2022-09-03T09:32:12.792Z,22.64
2022-09-03T09:34:41.419Z,22.65
2022-09-03T09:37:16.005Z,22.77
2022-09-03T09:40:00.681Z,22.82
2022-09-03T09:42:31.582Z,22.92
2022-09-03T09:45:10.035Z,23.01
2022-09-03T09:47:42.432Z,23.12
2022-09-03T09:50:24.441Z,23.20
2022-09-03T09:53:16.180Z,23.36
2022-09-03T09:55:58.064Z,23.41
2022-09-03T09:58:30.782Z,23.57
2022-09-03T10:01:15.125Z,23.76
2022-09-03T10:03:56.836Z,23.86
2022-09-03T10:06:48.632Z,24.04
2022-09-03T10:09:31.076Z,24.06
2022-09-03T10:12:40.081Z,24.29
2022-09-03T10:15:40.968Z,24.65
2022-09-03T10:18:18.234Z,24.89
2022-09-03T10:21:06.168Z,24.90
2022-09-03T10:24:15.521Z,24.80
2022-09-03T10:26:47.103Z,24.92
2022-09-03T10:29:23.460Z,24.99
2022-09-03T10:32:59.999Z,24.98
2022-09-03T10:35:46.201Z,25.27
2022-09-03T10:38:34.567Z,25.43
2022-09-03T10:41:41.421Z,25.90
2022-09-03T10:44:25.863Z,26.59
2022-09-03T10:47:32.291Z,27.89
2022-09-03T10:50:25.527Z,28.87
2022-09-03T10:53:26.252Z,29.79
2022-09-03T10:55:54.057Z,30.53
2022-09-03T10:58:48.783Z,31.13
2022-09-03T11:01:46.632Z,31.60
2022-09-03T11:04:37.729Z,32.07
2022-09-03T11:07:13.425Z,32.70
2022-09-03T11:10:09.851Z,33.04
2022-09-03T11:13:04.898Z,33.53
2022-09-03T11:16:05.110Z,34.15
2022-09-03T11:18:41.322Z,34.39
2022-09-03T11:21:14.916Z,34.26
2022-09-03T11:23:48.216Z,34.68
2022-09-03T11:26:19.904Z,35.16
2022-09-03T11:29:26.761Z,35.62
2022-09-03T11:32:26.699Z,35.78
2022-09-03T11:35:31.684Z,36.10
2022-09-03T11:38:21.169Z,36.22
2022-09-03T11:41:22.762Z,36.08
2022-09-03T11:43:59.111Z,35.83
2022-09-03T11:46:34.079Z,36.43
2022-09-03T11:49:14.023Z,36.63
2022-09-03T11:52:02.100Z,37.16
2022-09-03T11:54:46.158Z,36.98
2022-09-03T11:57:43.670Z,37.38
2022-09-03T12:00:21.657Z,38.01
2022-09-03T12:03:17.914Z,37.96
2022-09-03T12:06:27.434Z,38.97
2022-09-03T12:09:39.224Z,38.75
2022-09-03T12:13:01.016Z,38.27
2022-09-03T12:16:24.861Z,37.29
2022-09-03T12:19:00.342Z,36.82
2022-09-03T12:21:28.969Z,36.48
2022-09-03T12:24:03.019Z,35.67
2022-09-03T12:26:42.569Z,35.01
2022-09-03T12:29:28.479Z,36.77
2022-09-03T12:32:10.154Z,35.59
2022-09-03T12:34:38.326Z,35.30
2022-09-03T12:40:29.296Z,37.14
2022-09-03T12:46:14.411Z,38.60
2022-09-03T12:51:53.363Z,39.61
2022-09-03T12:54:23.475Z,39.65
2022-09-03T12:56:58.784Z,40.00
2022-09-03T12:59:31.184Z,40.11
2022-09-03T13:02:18.092Z,40.88
2022-09-03T13:04:47.367Z,40.38
2022-09-03T13:07:28.829Z,40.68
2022-09-03T13:10:06.857Z,40.87
2022-09-03T13:12:53.611Z,41.33
2022-09-03T13:15:26.508Z,41.52
2022-09-03T13:18:22.405Z,41.59
2022-09-03T13:22:04.187Z,41.89
2022-09-03T13:25:20.283Z,42.32
2022-09-03T13:28:03.869Z,42.23
2022-09-03T13:31:03.751Z,42.36
2022-09-03T13:33:45.466Z,42.33
2022-09-03T13:36:37.696Z,42.68
2022-09-03T13:39:38.590Z,42.09
2022-09-03T13:42:40.899Z,41.36
2022-09-03T13:45:43.227Z,40.82
2022-09-03T13:48:55.932Z,41.35
2022-09-03T13:51:56.764Z,41.25
2022-09-03T13:54:49.023Z,40.07
2022-09-03T13:57:41.135Z,40.56
2022-09-03T14:00:24.975Z,40.55
2022-09-03T14:03:32.177Z,40.75
2022-09-03T14:06:42.608Z,41.91
2022-09-03T14:10:04.065Z,41.78
2022-09-03T14:12:55.968Z,40.77
2022-09-03T14:16:16.075Z,39.68
2022-09-03T14:18:58.512Z,39.95
2022-09-03T14:21:59.798Z,39.81
2022-09-03T14:24:30.906Z,39.49
2022-09-03T14:27:02.637Z,38.67
2022-09-03T14:29:34.786Z,38.45
2022-09-03T14:32:35.723Z,38.37
2022-09-03T14:39:27.722Z,38.77
2022-09-03T14:42:18.892Z,38.11
2022-09-03T14:45:33.023Z,37.64
2022-09-03T14:48:37.315Z,38.05
2022-09-03T14:51:21.088Z,38.10
2022-09-03T14:54:51.125Z,37.86
2022-09-03T14:58:16.700Z,38.35
2022-09-03T15:01:00.345Z,38.10
2022-09-03T15:04:03.885Z,37.61
2022-09-03T15:07:02.225Z,37.52
2022-09-03T15:10:02.423Z,37.06
2022-09-03T15:12:53.001Z,36.44
2022-09-03T15:15:43.752Z,35.84
2022-09-03T15:18:44.689Z,35.48
2022-09-03T15:21:40.214Z,34.84
2022-09-03T15:25:14.279Z,34.28
2022-09-03T15:28:24.580Z,34.21
2022-09-03T15:31:52.689Z,33.66
2022-09-03T15:34:56.831Z,33.64
2022-09-03T15:37:38.944Z,33.47
2022-09-03T15:40:32.477Z,33.25
2022-09-03T15:43:21.791Z,33.18
2022-09-03T15:47:12.224Z,33.26
2022-09-03T15:49:54.689Z,34.39
2022-09-03T15:52:33.581Z,34.95
2022-09-03T15:55:34.428Z,35.71
2022-09-03T15:58:35.957Z,36.45
2022-09-03T16:01:45.874Z,36.08
2022-09-03T16:04:16.638Z,36.45
2022-09-03T16:07:01.034Z,36.42
2022-09-03T16:10:07.873Z,36.44
2022-09-03T16:13:27.657Z,37.00
2022-09-03T16:16:06.118Z,37.14
2022-09-03T16:18:49.765Z,37.14
2022-09-03T16:21:38.585Z,36.94
2022-09-03T16:24:28.831Z,37.14
2022-09-03T16:27:36.198Z,37.39
2022-09-03T16:30:10.598Z,37.13
2022-09-03T16:33:09.439Z,37.06
2022-09-03T16:35:57.064Z,37.00
2022-09-03T16:38:49.190Z,36.69
2022-09-03T16:42:07.477Z,36.47
2022-09-03T16:45:06.747Z,36.60
2022-09-03T16:48:14.242Z,36.59
2022-09-03T16:50:48.320Z,35.96
2022-09-03T16:53:40.032Z,35.76
2022-09-03T16:56:59.775Z,35.39
2022-09-03T17:00:05.087Z,35.39
2022-09-03T17:03:29.756Z,34.76
2022-09-03T17:06:36.729Z,33.97
2022-09-03T17:09:54.220Z,33.33
2022-09-03T17:12:38.849Z,32.70
2022-09-03T17:16:24.660Z,32.46
2022-09-03T17:19:33.172Z,32.29
2022-09-03T17:22:28.222Z,31.68
2022-09-03T17:25:07.180Z,31.26
2022-09-03T17:28:03.736Z,31.06
2022-09-03T17:30:57.186Z,30.99
2022-09-03T17:33:54.484Z,30.55
2022-09-03T17:36:31.322Z,30.48
2022-09-03T17:39:42.810Z,30.18
2022-09-03T17:42:40.071Z,30.18
2022-09-03T17:45:38.068Z,29.72
2022-09-03T17:48:46.225Z,29.75
2022-09-03T17:51:48.071Z,29.35
2022-09-03T17:54:28.018Z,29.18
2022-09-03T17:57:38.210Z,28.95
2022-09-03T18:00:12.213Z,28.91
2022-09-03T18:03:03.149Z,28.92
2022-09-03T18:05:48.333Z,28.71
2022-09-03T18:09:17.627Z,28.71
2022-09-03T18:11:57.701Z,28.40
2022-09-03T18:15:21.493Z,28.35
2022-09-03T18:18:05.588Z,28.26
2022-09-03T18:21:30.901Z,28.05
2022-09-03T18:25:02.415Z,27.91
2022-09-03T18:28:15.121Z,27.68
2022-09-03T18:31:07.813Z,27.26
2022-09-03T18:33:55.646Z,27.48
2022-09-03T18:36:47.364Z,27.35
2022-09-03T18:39:47.194Z,27.14
2022-09-03T18:43:21.635Z,27.04
2022-09-03T18:50:12.448Z,26.64
2022-09-03T18:53:08.345Z,26.60
2022-09-03T18:56:55.536Z,26.46
2022-09-03T19:00:09.644Z,26.33
2022-09-03T19:03:18.105Z,26.03
2022-09-03T19:06:54.291Z,26.05
2022-09-03T19:10:09.465Z,25.81
2022-09-03T19:13:44.345Z,25.63
2022-09-03T19:17:09.503Z,25.67
2022-09-03T19:20:29.073Z,25.57
2022-09-03T19:23:15.700Z,25.41
2022-09-03T19:26:02.368Z,25.31
2022-09-03T19:28:52.218Z,25.25
2022-09-03T19:32:11.710Z,25.17
2022-09-03T19:35:26.434Z,24.99
2022-09-03T19:38:43.486Z,24.98
2022-09-03T19:41:44.389Z,24.78
2022-09-03T19:45:17.068Z,24.82
2022-09-03T19:48:41.387Z,24.65
2022-09-03T19:51:48.801Z,24.48
2022-09-03T19:54:43.612Z,24.42
2022-09-03T19:57:33.288Z,24.34
2022-09-03T20:00:31.296Z,24.36
2022-09-03T20:03:21.561Z,24.19
2022-09-03T20:06:13.356Z,24.14
2022-09-03T20:08:59.982Z,24.12
2022-09-03T20:11:30.508Z,23.99
2022-09-03T20:14:23.395Z,23.89
2022-09-03T20:16:54.401Z,23.91
2022-09-03T20:19:58.135Z,23.82
2022-09-03T20:23:14.369Z,23.84
2022-09-03T20:26:09.782Z,23.82
2022-09-03T20:29:12.299Z,23.67
2022-09-03T20:32:25.211Z,23.67
2022-09-03T20:35:38.419Z,23.50
2022-09-03T20:38:32.376Z,23.54
2022-09-03T20:42:15.641Z,23.52
2022-09-03T20:45:23.197Z,23.36
2022-09-03T20:49:00.664Z,23.29
2022-09-03T20:51:41.069Z,23.22
2022-09-03T20:55:05.786Z,23.18
2022-09-03T20:57:55.460Z,23.08
2022-09-03T21:00:50.904Z,23.01
2022-09-03T21:03:27.721Z,22.93
2022-09-03T21:06:33.456Z,22.86
2022-09-03T21:10:07.213Z,22.78
2022-09-03T21:13:06.433Z,22.65
2022-09-03T21:16:01.646Z,22.57
2022-09-03T21:19:25.815Z,22.50
2022-09-03T21:22:41.933Z,22.42
2022-09-03T21:25:17.590Z,22.33
2022-09-03T21:27:59.753Z,22.26
2022-09-03T21:30:30.193Z,22.22
2022-09-03T21:33:29.323Z,22.10
2022-09-03T21:36:31.388Z,22.03
2022-09-03T21:39:15.626Z,21.89
2022-09-03T21:42:26.371Z,21.94
2022-09-03T21:45:07.533Z,21.86
2022-09-03T21:47:48.002Z,21.80
2022-09-03T21:50:23.150Z,21.71
2022-09-03T21:53:20.566Z,21.65
2022-09-03T21:56:36.007Z,21.57
2022-09-03T21:59:20.193Z,21.50
2022-09-03T22:02:27.177Z,21.43
2022-09-03T22:04:57.954Z,21.37
2022-09-03T22:07:55.799Z,21.32
2022-09-03T22:11:28.687Z,21.25
2022-09-03T22:14:12.507Z,21.16
2022-09-03T22:16:58.705Z,21.11
2022-09-03T22:19:37.351Z,21.03
2022-09-03T22:22:22.943Z,20.98
2022-09-03T22:25:13.994Z,20.92
2022-09-03T22:28:13.310Z,20.85
2022-09-03T22:31:21.236Z,20.77
2022-09-03T22:34:20.791Z,20.71
2022-09-03T22:37:02.439Z,20.65
2022-09-03T22:39:47.161Z,20.61
2022-09-03T22:43:01.784Z,20.55
2022-09-03T22:46:05.115Z,20.46
2022-09-03T22:48:50.915Z,20.41
2022-09-03T22:51:21.798Z,20.36
2022-09-03T22:54:38.148Z,20.33
2022-09-03T22:57:08.261Z,20.22
2022-09-03T23:00:06.185Z,20.19
2022-09-03T23:02:34.578Z,20.15
2022-09-03T23:05:20.232Z,20.09
2022-09-03T23:08:06.833Z,19.97
2022-09-03T23:11:12.014Z,19.83
2022-09-03T23:13:49.320Z,19.98
2022-09-03T23:16:54.896Z,19.96
2022-09-03T23:22:13.132Z,19.87
2022-09-03T23:24:55.420Z,19.80
2022-09-03T23:27:47.542Z,19.74
2022-09-03T23:30:16.689Z,19.69
2022-09-03T23:32:44.593Z,19.66
2022-09-03T23:35:19.425Z,19.63
2022-09-03T23:38:23.974Z,19.57
2022-09-03T23:40:58.157Z,19.54
2022-09-03T23:43:38.413Z,19.48
2022-09-03T23:46:34.568Z,19.44
2022-09-03T23:49:20.568Z,19.39
2022-09-03T23:52:20.721Z,19.34
2022-09-03T23:55:21.536Z,19.30
2022-09-03T23:58:29.527Z,19.22
